Time;durP1;ratioP1;P1;durP2;ratioP2;P2;SDS_P1;SDS_P2;PMS_P1;PMS_P2;Temp;Humidity;BMP_temperature;BMP_pressure;BME280_temperature;BME280_humidity;BME280_pressure;Samples;Min_cycle;Max_cycle;Signal;HPM_P1;HPM_P2
2022/03/16 00:02:20;;;;;;;44.25;22.63;;;6.50;99.90;;;;;;5034439;27;20045;-68
2022/03/16 00:04:51;;;;;;;48.53;24.45;;;6.40;99.90;;;;;;5040902;28;20124;-68
2022/03/16 00:07:17;;;;;;;45.85;23.13;;;6.40;99.90;;;;;;5034821;27;20073;-68
2022/03/16 00:09:43;;;;;;;50.17;23.92;;;6.40;99.90;;;;;;5031896;27;20082;-68
2022/03/16 00:12:09;;;;;;;44.55;23.63;;;6.40;99.90;;;;;;5035173;28;20102;-68
2022/03/16 00:14:36;;;;;;;52.97;24.80;;;6.40;99.90;;;;;;5040845;27;20127;-68
2022/03/16 00:17:02;;;;;;;45.22;23.95;;;6.30;99.90;;;;;;5034974;28;20049;-68
2022/03/16 00:19:28;;;;;;;;;;;6.30;99.90;;;;;;5056207;22;20058;-69
2022/03/16 00:21:54;;;;;;;43.90;22.88;;;6.20;99.90;;;;;;5086018;28;19920;-69
2022/03/16 00:24:19;;;;;;;47.73;24.27;;;6.20;99.90;;;;;;5086781;28;20036;-68
2022/03/16 00:26:45;;;;;;;47.17;21.93;;;6.20;99.90;;;;;;5093365;28;20400;-69
2022/03/16 00:29:10;;;;;;;43.90;21.57;;;6.10;99.90;;;;;;5103030;28;20140;-68
2022/03/16 00:31:37;;;;;;;45.23;23.60;;;6.10;99.90;;;;;;5078351;28;20068;-68
2022/03/16 00:34:03;;;;;;;43.47;22.40;;;6.10;99.90;;;;;;5091083;28;20478;-68
2022/03/16 00:36:28;;;;;;;44.53;23.05;;;6.10;99.90;;;;;;5090870;28;20078;-69
2022/03/16 00:38:54;;;;;;;40.10;21.67;;;6.10;99.90;;;;;;5102718;28;20040;-68
2022/03/16 00:41:20;;;;;;;46.47;23.17;;;6.00;99.90;;;;;;5100476;28;20112;-69
2022/03/16 00:43:45;;;;;;;41.57;22.70;;;6.00;99.90;;;;;;5084442;28;20039;-69
2022/03/16 00:46:11;;;;;;;42.63;22.30;;;6.00;99.90;;;;;;5079200;28;20050;-68
2022/03/16 00:48:37;;;;;;;47.20;25.08;;;6.00;99.90;;;;;;5088436;28;20530;-69
2022/03/16 00:51:02;;;;;;;48.97;25.53;;;6.00;99.90;;;;;;5083118;28;20039;-68
2022/03/16 00:53:30;;;;;;;45.60;25.00;;;5.90;99.90;;;;;;5106856;28;20038;-69
2022/03/16 00:55:56;;;;;;;47.85;24.50;;;5.90;99.90;;;;;;5104115;28;20040;-69
2022/03/16 00:58:24;;;;;;;48.25;23.80;;;5.90;99.90;;;;;;5109113;28;20613;-69
2022/03/16 01:00:50;;;;;;;43.47;22.90;;;5.80;99.90;;;;;;5105717;28;20091;-68
2022/03/16 01:03:15;;;;;;;50.72;23.75;;;5.80;99.90;;;;;;5078296;27;20128;-68
2022/03/16 01:05:41;;;;;;;47.30;23.17;;;5.80;99.90;;;;;;5104703;28;20133;-68
2022/03/16 01:08:06;;;;;;;52.47;23.27;;;5.80;99.90;;;;;;5107434;27;20135;-68
2022/03/16 01:10:32;;;;;;;47.60;23.50;;;5.80;99.90;;;;;;5105886;28;20046;-68
2022/03/16 01:12:58;;;;;;;46.10;22.67;;;5.80;99.90;;;;;;5069571;28;20093;-68
2022/03/16 01:15:23;;;;;;;47.57;22.60;;;5.80;99.90;;;;;;5081861;28;20043;-68
2022/03/16 01:17:52;;;;;;;42.90;22.87;;;5.90;99.90;;;;;;5086858;27;20039;-69
2022/03/16 01:20:18;;;;;;;50.28;23.63;;;5.90;99.90;;;;;;5070603;28;20043;-69
2022/03/16 01:22:44;;;;;;;46.17;22.38;;;5.80;99.90;;;;;;5108386;27;20043;-68
2022/03/16 01:25:10;;;;;;;41.60;21.87;;;5.80;99.90;;;;;;5087738;28;20058;-69
2022/03/16 01:27:36;;;;;;;37.35;21.60;;;5.70;99.90;;;;;;5085571;28;20024;-69
2022/03/16 01:30:02;;;;;;;37.90;19.53;;;5.70;99.90;;;;;;5103125;28;20163;-69
2022/03/16 01:32:28;;;;;;;45.45;22.27;;;5.60;99.90;;;;;;5082734;28;21154;-69
2022/03/16 01:34:53;;;;;;;50.57;22.50;;;5.60;99.90;;;;;;5090459;27;20724;-69
2022/03/16 01:37:19;;;;;;;46.97;21.63;;;5.60;99.90;;;;;;5085405;28;20538;-68
2022/03/16 01:39:44;;;;;;;39.27;20.00;;;5.60;99.90;;;;;;5082461;27;20089;-68
2022/03/16 01:42:12;;;;;;;42.53;21.60;;;5.50;99.90;;;;;;5086110;28;20052;-69
2022/03/16 01:44:49;;;;;;;43.00;21.60;;;5.50;99.90;;;;;;5101675;28;20066;-69
2022/03/16 01:47:16;;;;;;;37.17;20.20;;;5.40;99.90;;;;;;5086831;28;20035;-68
2022/03/16 01:49:43;;;;;;;42.40;22.08;;;5.40;99.90;;;;;;5083665;28;20526;-68
2022/03/16 01:52:10;;;;;;;42.97;20.95;;;5.40;99.90;;;;;;5081990;28;20036;-68
2022/03/16 01:54:39;;;;;;;42.40;21.80;;;5.30;99.90;;;;;;5106163;27;20062;-68
2022/03/16 01:57:04;;;;;;;39.17;19.83;;;5.30;99.90;;;;;;5109340;27;20043;-68
2022/03/16 01:59:31;;;;;;;34.83;19.63;;;5.30;99.90;;;;;;5072414;28;20039;-69
2022/03/16 02:01:57;;;;;;;48.10;20.65;;;5.20;99.90;;;;;;5084093;28;20396;-69
2022/03/16 02:04:23;;;;;;;37.05;18.67;;;5.20;99.90;;;;;;5080304;28;20040;-69
2022/03/16 02:06:48;;;;;;;38.43;19.70;;;5.20;99.90;;;;;;5087422;28;20039;-68
2022/03/16 02:09:14;;;;;;;42.17;21.77;;;5.20;99.90;;;;;;5085841;28;20250;-69
2022/03/16 02:11:40;;;;;;;38.70;20.37;;;5.10;99.90;;;;;;5104484;27;20067;-69
2022/03/16 02:14:06;;;;;;;39.80;20.25;;;5.20;99.90;;;;;;5083711;28;20036;-69
2022/03/16 02:16:35;;;;;;;43.23;21.07;;;5.10;99.90;;;;;;5081872;28;20416;-68
2022/03/16 02:19:01;;;;;;;43.10;19.80;;;5.10;99.90;;;;;;5093910;28;20130;-69
2022/03/16 02:21:35;;;;;;;46.72;21.92;;;5.10;99.90;;;;;;5082384;28;20040;-69
2022/03/16 02:24:01;;;;;;;44.45;21.90;;;5.10;99.90;;;;;;5083528;28;20047;-68
2022/03/16 02:26:27;;;;;;;42.05;22.02;;;5.10;99.90;;;;;;5101581;28;20040;-68
2022/03/16 02:28:53;;;;;;;38.20;19.47;;;5.00;99.90;;;;;;5068395;28;20046;-68
2022/03/16 02:31:20;;;;;;;43.33;20.63;;;5.00;99.90;;;;;;5104740;28;20043;-69
2022/03/16 02:33:46;;;;;;;41.38;21.88;;;5.00;99.90;;;;;;5100541;27;20032;-68
2022/03/16 02:36:11;;;;;;;42.50;20.40;;;5.00;99.90;;;;;;5085236;28;20118;-69
2022/03/16 02:38:37;;;;;;;44.83;20.50;;;5.00;99.90;;;;;;5107560;28;20107;-69
2022/03/16 02:41:03;;;;;;;46.08;21.90;;;5.00;99.90;;;;;;4975509;28;20466;-70
2022/03/16 02:43:30;;;;;;;40.50;20.17;;;5.00;99.90;;;;;;4888643;28;20040;-70
2022/03/16 02:45:55;;;;;;;37.97;20.53;;;5.00;99.90;;;;;;5078248;28;20459;-70
2022/03/16 02:48:21;;;;;;;41.67;21.00;;;4.90;99.90;;;;;;5105380;27;20504;-70
2022/03/16 02:50:48;;;;;;;40.33;20.85;;;4.90;99.90;;;;;;5077427;28;20035;-70
2022/03/16 02:53:15;;;;;;;42.05;21.73;;;4.90;99.90;;;;;;5062338;28;20100;-70
2022/03/16 02:55:41;;;;;;;48.63;21.67;;;4.90;99.90;;;;;;5082298;28;20039;-70
2022/03/16 02:58:07;;;;;;;41.47;20.90;;;4.90;99.90;;;;;;5104429;28;20450;-70
2022/03/16 03:00:33;;;;;;;42.00;21.08;;;4.90;99.90;;;;;;5077869;28;20046;-70
2022/03/16 03:02:59;;;;;;;38.13;20.67;;;4.90;99.90;;;;;;5082096;28;20047;-70
2022/03/16 03:05:25;;;;;;;41.78;21.25;;;4.80;99.90;;;;;;5082285;28;20548;-70
2022/03/16 03:07:51;;;;;;;49.17;22.17;;;4.80;99.90;;;;;;5081477;28;21810;-70
2022/03/16 03:10:16;;;;;;;40.90;20.57;;;4.80;99.90;;;;;;5064083;28;20144;-70
2022/03/16 03:12:42;;;;;;;42.03;20.57;;;4.80;99.90;;;;;;5084589;28;20114;-70
2022/03/16 03:15:10;;;;;;;41.13;20.60;;;4.80;99.90;;;;;;5082868;28;20730;-70
2022/03/16 03:17:37;;;;;;;39.15;21.38;;;4.80;99.90;;;;;;5085038;28;20067;-70
2022/03/16 03:20:04;;;;;;;40.58;20.85;;;4.80;99.90;;;;;;5018282;28;20600;-69
2022/03/16 03:22:30;;;;;;;41.30;21.67;;;4.70;99.90;;;;;;4865951;28;20092;-69
2022/03/16 03:24:57;;;;;;;46.53;22.50;;;4.80;99.90;;;;;;5081164;28;20041;-69
2022/03/16 03:27:23;;;;;;;42.80;21.55;;;4.80;99.90;;;;;;4927894;28;20890;-66
2022/03/16 03:29:49;;;;;;;40.28;20.33;;;4.80;99.90;;;;;;5016671;28;20164;-68
2022/03/16 03:32:15;;;;;;;44.08;21.98;;;4.70;99.90;;;;;;5085025;28;20544;-68
2022/03/16 03:34:46;;;;;;;44.92;20.48;;;4.70;99.90;;;;;;5103689;28;20040;-68
2022/03/16 03:37:15;;;;;;;35.58;19.55;;;4.70;99.90;;;;;;5076454;28;20496;-68
2022/03/16 03:39:41;;;;;;;37.50;20.10;;;4.70;99.90;;;;;;5102875;28;20523;-68
2022/03/16 03:42:08;;;;;;;41.67;20.25;;;4.70;99.90;;;;;;5105738;28;20044;-68
2022/03/16 03:44:37;;;;;;;41.67;20.25;;;4.70;99.90;;;;;;4861589;28;20457;-70
2022/03/16 03:47:05;;;;;;;36.95;20.13;;;4.70;99.90;;;;;;4807403;28;20711;-71
2022/03/16 03:49:33;;;;;;;42.20;19.80;;;4.60;99.90;;;;;;5090422;28;20472;-72
2022/03/16 03:52:00;;;;;;;40.88;19.75;;;4.60;99.90;;;;;;5082185;28;20031;-71
2022/03/16 03:54:26;;;;;;;43.60;20.73;;;4.60;99.90;;;;;;5103891;28;20047;-73
2022/03/16 03:56:51;;;;;;;36.50;19.93;;;4.60;99.90;;;;;;5092367;28;20451;-71
2022/03/16 03:59:17;;;;;;;38.07;19.67;;;4.60;99.90;;;;;;5089465;27;20051;-72
2022/03/16 04:01:43;;;;;;;40.97;20.50;;;4.60;99.90;;;;;;5080090;28;20096;-71
2022/03/16 04:04:08;;;;;;;34.13;18.57;;;4.60;99.90;;;;;;5089477;28;20173;-72
2022/03/16 04:06:34;;;;;;;45.60;20.50;;;4.50;99.90;;;;;;5089594;28;20088;-72
2022/03/16 04:08:59;;;;;;;41.63;20.03;;;4.50;99.90;;;;;;5089616;28;20039;-71
2022/03/16 04:11:25;;;;;;;40.07;19.80;;;4.50;99.90;;;;;;5091876;28;20028;-74
2022/03/16 04:13:51;;;;;;;45.20;19.80;;;4.50;99.90;;;;;;5092538;28;20363;-72
2022/03/16 04:16:16;;;;;;;40.67;20.00;;;4.50;99.90;;;;;;5089235;28;20042;-74
2022/03/16 04:18:45;;;;;;;35.00;20.10;;;4.50;99.90;;;;;;5092025;28;20133;-71
2022/03/16 04:21:10;;;;;;;39.78;19.75;;;4.50;99.90;;;;;;5088468;28;20044;-71
2022/03/16 04:23:36;;;;;;;40.57;20.30;;;4.40;99.90;;;;;;5109195;28;20043;-71
2022/03/16 04:26:02;;;;;;;39.07;21.40;;;4.40;99.90;;;;;;5071436;28;20042;-72
2022/03/16 04:28:27;;;;;;;36.60;20.43;;;4.40;99.90;;;;;;5105888;28;20034;-71
2022/03/16 04:30:53;;;;;;;35.63;20.10;;;4.40;99.90;;;;;;5088685;28;20629;-71
2022/03/16 04:33:18;;;;;;;32.97;18.67;;;4.40;99.90;;;;;;5093260;28;20043;-71
2022/03/16 04:35:44;;;;;;;33.10;18.23;;;4.40;99.90;;;;;;5069791;28;20039;-71
2022/03/16 04:38:10;;;;;;;38.87;19.53;;;4.30;99.90;;;;;;5091567;28;20039;-71
2022/03/16 04:40:36;;;;;;;40.40;19.00;;;4.40;99.90;;;;;;5092814;28;20476;-71
2022/03/16 04:43:02;;;;;;;41.90;19.23;;;4.40;99.90;;;;;;5107028;28;20043;-71
2022/03/16 04:45:27;;;;;;;34.63;17.38;;;4.40;99.90;;;;;;5083534;28;20044;-71
2022/03/16 04:47:53;;;;;;;34.27;17.60;;;4.30;99.90;;;;;;5089361;28;20047;-72
2022/03/16 04:50:19;;;;;;;33.83;17.63;;;4.30;99.90;;;;;;5084989;28;20050;-72
2022/03/16 04:52:47;;;;;;;34.10;18.95;;;4.30;99.90;;;;;;5081578;28;20047;-72
2022/03/16 04:55:13;;;;;;;33.83;17.52;;;4.30;99.90;;;;;;5089535;28;20047;-72
2022/03/16 04:57:38;;;;;;;38.80;18.03;;;4.30;99.90;;;;;;5089801;27;20721;-71
2022/03/16 05:00:05;;;;;;;31.40;16.70;;;4.30;99.90;;;;;;5058771;28;20036;-72
2022/03/16 05:02:31;;;;;;;39.08;18.90;;;4.40;99.90;;;;;;5100893;28;20078;-71
2022/03/16 05:04:56;;;;;;;37.80;18.63;;;4.40;99.90;;;;;;5087554;28;20059;-71
2022/03/16 05:07:22;;;;;;;41.23;20.80;;;4.40;99.90;;;;;;5104181;28;20028;-75
2022/03/16 05:09:47;;;;;;;38.83;18.27;;;4.40;99.90;;;;;;5084604;27;20156;-74
2022/03/16 05:12:13;;;;;;;39.63;19.70;;;4.40;99.90;;;;;;5095714;28;20097;-73
2022/03/16 05:14:39;;;;;;;38.40;20.10;;;4.40;99.90;;;;;;5086101;28;20357;-75
2022/03/16 05:17:04;;;;;;;38.27;19.47;;;4.50;99.90;;;;;;5090172;28;20050;-74
2022/03/16 05:19:31;;;;;;;40.77;19.03;;;4.50;99.90;;;;;;5089614;28;20040;-75
2022/03/16 05:21:57;;;;;;;38.85;19.65;;;4.50;99.90;;;;;;5101075;28;20055;-73
2022/03/16 05:24:24;;;;;;;36.65;19.60;;;4.50;99.90;;;;;;5094784;28;20140;-74
2022/03/16 05:26:50;;;;;;;38.00;19.88;;;4.50;99.90;;;;;;5090445;28;20091;-74
2022/03/16 05:29:16;;;;;;;38.47;20.85;;;4.60;99.90;;;;;;5106253;28;20035;-74
2022/03/16 05:31:42;;;;;;;38.17;19.88;;;4.60;99.90;;;;;;5095176;28;20433;-74
2022/03/16 05:34:08;;;;;;;41.83;21.30;;;4.60;99.90;;;;;;5083537;28;20044;-74
2022/03/16 05:36:34;;;;;;;39.35;20.23;;;4.60;99.90;;;;;;5090010;28;20044;-72
2022/03/16 05:39:00;;;;;;;39.53;19.50;;;4.70;99.90;;;;;;5091270;28;20032;-71
2022/03/16 05:41:26;;;;;;;36.47;19.30;;;4.60;99.90;;;;;;5085716;28;20050;-72
2022/03/16 05:43:51;;;;;;;36.67;19.17;;;4.70;99.90;;;;;;5088082;28;20043;-71
2022/03/16 05:46:17;;;;;;;35.57;20.00;;;4.70;99.90;;;;;;5090448;28;20043;-72
2022/03/16 05:48:43;;;;;;;40.60;20.40;;;4.70;99.90;;;;;;5087949;28;20039;-72
2022/03/16 05:51:09;;;;;;;33.70;19.03;;;4.70;99.90;;;;;;5084576;28;20400;-71
2022/03/16 05:53:35;;;;;;;36.28;19.55;;;4.70;99.90;;;;;;5091448;28;20032;-72
2022/03/16 05:56:01;;;;;;;37.88;21.10;;;4.70;99.90;;;;;;5099082;28;20040;-71
2022/03/16 05:58:26;;;;;;;36.60;20.23;;;4.70;99.90;;;;;;5084564;28;20132;-71
2022/03/16 06:00:52;;;;;;;31.93;18.53;;;4.80;99.90;;;;;;5089103;28;20131;-71
2022/03/16 06:03:18;;;;;;;33.10;19.73;;;4.80;99.90;;;;;;5090702;28;20447;-71
2022/03/16 06:05:43;;;;;;;37.00;17.80;;;4.80;99.90;;;;;;5085418;28;20081;-72
2022/03/16 06:08:09;;;;;;;39.77;19.70;;;4.80;99.90;;;;;;5087786;28;20120;-71
2022/03/16 06:10:34;;;;;;;38.87;18.80;;;4.80;99.90;;;;;;5086699;28;20051;-71
2022/03/16 06:13:02;;;;;;;33.67;18.80;;;4.80;99.90;;;;;;5087775;28;20053;-72
2022/03/16 06:15:29;;;;;;;38.28;20.17;;;4.80;99.90;;;;;;5085521;28;20574;-71
2022/03/16 06:17:57;;;;;;;36.47;19.20;;;4.80;99.90;;;;;;5088059;28;20054;-71
2022/03/16 06:20:23;;;;;;;35.85;19.05;;;4.80;99.90;;;;;;5172157;22;20044;-69
2022/03/16 06:22:49;;;;;;;33.58;18.17;;;4.90;99.90;;;;;;5097981;27;20067;-69
2022/03/16 06:25:15;;;;;;;35.53;18.27;;;4.80;99.90;;;;;;5100902;28;20541;-69
2022/03/16 06:27:40;;;;;;;36.03;18.83;;;4.80;99.90;;;;;;5108275;28;20377;-69
2022/03/16 06:30:07;;;;;;;37.23;19.03;;;4.90;99.90;;;;;;5102967;28;20352;-69
2022/03/16 06:32:33;;;;;;;33.78;18.10;;;4.90;99.90;;;;;;5104288;28;20039;-69
2022/03/16 06:34:58;;;;;;;36.77;18.17;;;4.90;99.90;;;;;;5097989;27;20035;-69
2022/03/16 06:37:24;;;;;;;32.60;18.27;;;4.90;99.90;;;;;;5106368;28;20285;-70
2022/03/16 06:39:50;;;;;;;31.97;19.03;;;4.90;99.90;;;;;;5106046;28;20095;-69
2022/03/16 06:42:15;;;;;;;33.83;19.30;;;4.90;99.90;;;;;;5104157;28;20024;-70
2022/03/16 06:44:41;;;;;;;30.17;16.57;;;4.90;99.90;;;;;;5107331;28;20064;-69
2022/03/16 06:47:07;;;;;;;33.87;19.50;;;5.00;99.90;;;;;;5108747;27;20036;-69
2022/03/16 06:49:32;;;;;;;33.00;18.37;;;5.00;99.90;;;;;;5104184;28;20047;-70
2022/03/16 06:51:58;;;;;;;33.10;19.57;;;5.00;99.90;;;;;;5083969;28;20031;-77
2022/03/16 06:54:23;;;;;;;34.33;18.97;;;5.00;99.90;;;;;;5099455;28;20122;-69
2022/03/16 06:56:49;;;;;;;35.27;19.73;;;5.10;99.90;;;;;;5106878;27;20031;-69
2022/03/16 06:59:15;;;;;;;31.00;18.57;;;5.20;99.90;;;;;;5096341;28;20371;-68
2022/03/16 07:01:40;;;;;;;34.97;19.83;;;5.10;99.90;;;;;;5102688;28;20396;-69
2022/03/16 07:04:06;;;;;;;41.90;21.67;;;5.20;99.90;;;;;;5101782;28;20076;-70
2022/03/16 07:06:31;;;;;;;37.63;20.50;;;5.30;99.90;;;;;;5103214;28;20035;-69
2022/03/16 07:08:57;;;;;;;37.50;19.03;;;5.30;99.90;;;;;;5105007;28;20130;-69
2022/03/16 07:11:23;;;;;;;35.67;20.60;;;5.30;99.90;;;;;;5101398;28;20399;-69
2022/03/16 07:16:33;;;;;;;37.92;20.75;;;5.50;99.90;;;;;;5100418;28;20047;-69
2022/03/16 07:18:59;;;;;;;32.58;20.20;;;5.50;99.90;;;;;;5104160;28;20048;-68
2022/03/16 07:21:25;;;;;;;40.90;22.77;;;5.60;99.90;;;;;;5100954;28;20547;-70
2022/03/16 07:23:50;;;;;;;44.67;22.47;;;5.60;99.90;;;;;;5104210;28;20031;-70
2022/03/16 07:26:16;;;;;;;42.43;23.10;;;5.70;99.90;;;;;;5105997;28;20239;-70
2022/03/16 07:28:41;;;;;;;39.20;22.20;;;5.80;99.90;;;;;;5104271;28;20155;-70
2022/03/16 07:31:08;;;;;;;39.00;22.57;;;5.90;99.90;;;;;;5109509;28;20031;-70
2022/03/16 07:33:34;;;;;;;;;;;5.90;99.90;;;;;;5103629;27;20032;-70
2022/03/16 07:36:01;;;;;;;37.65;21.63;;;6.00;99.90;;;;;;5103082;28;20255;-70
2022/03/16 07:38:26;;;;;;;42.47;23.77;;;6.00;99.90;;;;;;5104636;28;20062;-70
2022/03/16 07:40:52;;;;;;;41.70;23.73;;;6.10;99.90;;;;;;5104872;28;20435;-70
2022/03/16 07:43:17;;;;;;;41.00;24.17;;;6.20;99.90;;;;;;5103148;28;20120;-71
2022/03/16 07:45:43;;;;;;;42.00;23.70;;;6.30;99.90;;;;;;5103645;28;20042;-70
2022/03/16 07:48:09;;;;;;;38.23;22.43;;;6.30;99.90;;;;;;5103006;28;20066;-70
2022/03/16 07:50:34;;;;;;;45.93;24.37;;;6.40;99.90;;;;;;5100036;28;20107;-70
2022/03/16 07:53:00;;;;;;;42.90;22.83;;;6.40;99.90;;;;;;5098002;28;20651;-71
2022/03/16 07:55:27;;;;;;;40.38;22.17;;;6.50;99.90;;;;;;5083396;28;20112;-70
2022/03/16 07:57:54;;;;;;;;;;;6.60;99.90;;;;;;5108490;28;20036;-70
2022/03/16 08:00:20;;;;;;;36.97;20.38;;;6.70;99.90;;;;;;5100120;28;19969;-71
2022/03/16 08:02:46;;;;;;;32.55;20.35;;;6.70;99.90;;;;;;5101203;28;20051;-70
2022/03/16 08:05:13;;;;;;;38.63;19.70;;;6.80;99.90;;;;;;5104454;28;20082;-70
2022/03/16 08:07:40;;;;;;;34.63;20.45;;;6.90;99.90;;;;;;5103643;28;20036;-71
2022/03/16 08:10:06;;;;;;;33.50;19.45;;;7.00;99.90;;;;;;5103201;28;20093;-70
2022/03/16 08:12:31;;;;;;;32.85;20.25;;;7.10;99.90;;;;;;5104395;28;20412;-70
2022/03/16 08:14:57;;;;;;;34.77;20.37;;;7.20;99.90;;;;;;5102134;28;20130;-70
2022/03/16 08:17:23;;;;;;;36.65;19.63;;;7.20;99.90;;;;;;5105313;28;20112;-70
2022/03/16 08:19:49;;;;;;;34.70;18.83;;;7.40;99.90;;;;;;5102242;28;20551;-70
2022/03/16 08:22:29;;;;;;;33.00;18.75;;;7.40;99.90;;;;;;5104648;28;20613;-70
2022/03/16 08:24:55;;;;;;;32.13;17.75;;;7.50;99.90;;;;;;5101021;28;20471;-70
2022/03/16 08:27:22;;;;;;;29.75;17.98;;;7.60;99.90;;;;;;5103159;28;20146;-70
2022/03/16 08:29:48;;;;;;;29.02;16.98;;;7.70;99.90;;;;;;5099635;28;20028;-70
2022/03/16 08:32:14;;;;;;;33.00;16.20;;;7.70;99.90;;;;;;5108272;28;20080;-71
2022/03/16 08:34:40;;;;;;;30.87;17.27;;;7.80;99.90;;;;;;5110702;28;20039;-70
2022/03/16 08:37:05;;;;;;;27.17;15.07;;;7.90;99.90;;;;;;5108261;28;20081;-71
2022/03/16 08:39:31;;;;;;;31.57;16.50;;;8.00;99.90;;;;;;5109743;28;20538;-71
2022/03/16 08:41:56;;;;;;;27.03;15.70;;;8.10;99.90;;;;;;5111490;28;20126;-71
2022/03/16 08:44:23;;;;;;;25.47;14.63;;;8.20;99.90;;;;;;5107731;28;20135;-71
2022/03/16 08:46:50;;;;;;;26.45;15.18;;;8.30;99.90;;;;;;5110756;28;20078;-70
2022/03/16 08:49:16;;;;;;;27.08;13.50;;;8.40;99.90;;;;;;5107596;27;20031;-71
2022/03/16 08:51:42;;;;;;;24.95;14.90;;;8.60;99.90;;;;;;5100510;28;20365;-70
2022/03/16 08:54:08;;;;;;;27.80;14.53;;;8.70;99.90;;;;;;5112373;28;20073;-71
2022/03/16 08:56:33;;;;;;;27.23;14.70;;;8.80;99.90;;;;;;5111320;28;20044;-70
2022/03/16 08:59:00;;;;;;;25.50;14.57;;;8.90;99.90;;;;;;5108336;28;20455;-71
2022/03/16 09:01:26;;;;;;;22.98;13.77;;;9.00;99.90;;;;;;5110812;28;20043;-71
2022/03/16 09:03:53;;;;;;;26.10;14.40;;;9.10;99.90;;;;;;5103271;28;20077;-70
2022/03/16 09:06:19;;;;;;;25.75;15.23;;;9.10;99.90;;;;;;5101723;27;20080;-70
2022/03/16 09:08:45;;;;;;;25.70;13.85;;;9.30;99.90;;;;;;5103998;28;20168;-70
2022/03/16 09:11:10;;;;;;;24.23;14.17;;;9.30;99.90;;;;;;5106962;28;20028;-70
2022/03/16 09:13:36;;;;;;;28.03;14.90;;;9.40;99.90;;;;;;5109078;28;20281;-70
2022/03/16 09:16:02;;;;;;;25.90;14.93;;;9.50;99.90;;;;;;5105153;28;20066;-70
2022/03/16 09:18:28;;;;;;;26.47;14.53;;;9.60;99.90;;;;;;5108257;28;20094;-70
2022/03/16 09:20:54;;;;;;;25.33;14.10;;;9.80;99.90;;;;;;5101865;28;20046;-70
2022/03/16 09:23:19;;;;;;;26.10;14.30;;;9.80;99.90;;;;;;5110059;27;20027;-70
2022/03/16 09:25:45;;;;;;;26.80;14.57;;;9.90;99.90;;;;;;5115548;28;20581;-70
2022/03/16 09:28:12;;;;;;;33.13;15.13;;;10.00;99.90;;;;;;5113412;27;20350;-70
2022/03/16 09:30:38;;;;;;;25.55;14.52;;;10.10;99.90;;;;;;5114301;28;20288;-70
2022/03/16 09:33:04;;;;;;;30.75;15.23;;;10.30;99.90;;;;;;5109662;28;20051;-70
2022/03/16 09:35:31;;;;;;;30.60;15.00;;;10.30;99.90;;;;;;5119485;27;20051;-70
2022/03/16 09:38:00;;;;;;;32.05;15.40;;;10.50;99.90;;;;;;5116230;27;20043;-70
2022/03/16 09:40:26;;;;;;;24.45;14.35;;;10.50;99.90;;;;;;5112203;28;20066;-70
2022/03/16 09:42:54;;;;;;;28.08;14.85;;;10.70;99.90;;;;;;5110033;28;20527;-70
2022/03/16 09:45:22;;;;;;;28.05;14.57;;;10.70;99.90;;;;;;5111309;27;20415;-69
2022/03/16 09:47:49;;;;;;;32.22;14.32;;;10.90;99.90;;;;;;5103135;27;20027;-70
2022/03/16 09:50:18;;;;;;;25.20;14.25;;;11.00;99.90;;;;;;5105433;27;20473;-70
2022/03/16 09:52:45;;;;;;;25.42;13.88;;;11.10;99.90;;;;;;5100153;28;20476;-70
2022/03/16 09:55:10;;;;;;;24.30;14.50;;;11.20;99.90;;;;;;5103722;28;20054;-70
2022/03/16 09:57:36;;;;;;;24.00;13.13;;;11.30;99.90;;;;;;5090090;28;20039;-70
2022/03/16 10:00:02;;;;;;;24.27;12.33;;;11.40;99.90;;;;;;5102512;28;20039;-70
2022/03/16 10:02:28;;;;;;;;;;;11.50;99.90;;;;;;5107902;28;20035;-70
2022/03/16 10:04:54;;;;;;;24.75;13.10;;;11.60;99.90;;;;;;5108801;27;20386;-70
2022/03/16 10:07:28;;;;;;;24.65;12.00;;;11.70;99.90;;;;;;5105136;28;20063;-70
2022/03/16 10:15:23;;;;;;;22.85;11.15;;;12.00;99.90;;;;;;5097271;28;20051;-70
2022/03/16 10:17:50;;;;;;;21.15;10.88;;;12.20;99.90;;;;;;5109129;27;20039;-70
2022/03/16 10:20:20;;;;;;;16.38;10.32;;;12.30;99.90;;;;;;5099317;28;20107;-70
2022/03/16 10:22:59;;;;;;;15.98;9.48;;;12.40;99.90;;;;;;5101853;28;20077;-70
2022/03/16 10:25:27;;;;;;;19.42;9.75;;;12.50;99.90;;;;;;5105729;28;20074;-70
2022/03/16 10:28:21;;;;;;;18.27;9.20;;;12.50;99.90;;;;;;5103220;28;20042;-71
2022/03/16 10:30:57;;;;;;;16.63;9.18;;;12.50;99.90;;;;;;5109719;27;20039;-70
2022/03/16 10:33:43;;;;;;;20.70;9.93;;;12.60;99.90;;;;;;5105542;27;20360;-71
2022/03/16 10:36:14;;;;;;;16.02;9.02;;;12.60;99.90;;;;;;5097589;28;20353;-70
2022/03/16 10:38:44;;;;;;;17.58;9.13;;;12.70;99.90;;;;;;5105933;28;20040;-71
2022/03/16 10:46:52;;;;;;;17.48;9.82;;;13.00;99.80;;;;;;5103651;28;20072;-70
2022/03/16 10:49:20;;;;;;;13.52;7.72;;;13.10;99.00;;;;;;5105528;28;20043;-70
2022/03/16 10:52:09;;;;;;;14.60;8.70;;;13.10;98.30;;;;;;5101372;28;20039;-70
2022/03/16 10:54:36;;;;;;;15.82;8.23;;;13.10;96.30;;;;;;5103250;28;20096;-70
2022/03/16 10:57:04;;;;;;;15.45;8.32;;;13.30;97.20;;;;;;5107472;27;20042;-70
2022/03/16 10:59:32;;;;;;;15.55;8.35;;;13.30;94.20;;;;;;5107389;27;20142;-70
2022/03/16 11:02:15;;;;;;;15.10;8.25;;;13.40;93.30;;;;;;5109726;27;20046;-71
2022/03/16 11:04:43;;;;;;;12.73;7.65;;;13.40;90.30;;;;;;5097355;28;20052;-71
2022/03/16 11:07:09;;;;;;;15.73;8.85;;;13.50;92.00;;;;;;5104939;28;20102;-70
2022/03/16 11:09:36;;;;;;;15.45;8.10;;;13.60;91.60;;;;;;5103311;28;20031;-71
2022/03/16 11:14:49;;;;;;;14.60;7.22;;;13.80;87.90;;;;;;5103016;27;20064;-71
2022/03/16 11:17:16;;;;;;;13.70;7.30;;;13.90;89.90;;;;;;5108579;27;20457;-70
2022/03/16 11:19:44;;;;;;;13.25;7.32;;;14.00;88.50;;;;;;5106788;28;20038;-71
2022/03/16 11:22:34;;;;;;;14.43;7.20;;;14.20;84.10;;;;;;5102467;28;20499;-70
2022/03/16 11:25:10;;;;;;;15.75;6.93;;;14.40;78.10;;;;;;5107791;27;20118;-71
2022/03/16 11:27:42;;;;;;;17.60;7.90;;;14.40;76.80;;;;;;5088228;28;20035;-70
2022/03/16 11:30:28;;;;;;;12.63;7.03;;;14.50;77.00;;;;;;5105824;28;20277;-71
2022/03/16 11:32:57;;;;;;;15.38;7.78;;;14.70;74.70;;;;;;5100752;28;20481;-71
2022/03/16 11:35:31;;;;;;;15.13;7.25;;;14.70;73.20;;;;;;5103400;28;20043;-71
2022/03/16 11:38:09;;;;;;;13.02;7.03;;;14.80;71.60;;;;;;5106989;28;20040;-71
2022/03/16 11:40:40;;;;;;;11.60;6.78;;;14.80;70.10;;;;;;5106161;28;20047;-71
2022/03/16 11:43:11;;;;;;;10.82;6.38;;;14.90;70.30;;;;;;5100906;28;20491;-70
2022/03/16 11:45:44;;;;;;;9.93;6.25;;;15.00;70.50;;;;;;5105472;28;20043;-71
2022/03/16 11:48:37;;;;;;;12.02;6.93;;;15.00;68.90;;;;;;5105585;28;20036;-73
2022/03/16 11:51:06;;;;;;;17.63;7.38;;;15.10;68.00;;;;;;5095689;28;20063;-71
2022/03/16 11:56:44;;;;;;;11.68;7.50;;;15.20;65.80;;;;;;5093089;28;20130;-71
2022/03/16 11:59:16;;;;;;;15.02;7.57;;;15.40;69.30;;;;;;5091071;28;20066;-71
2022/03/16 12:01:52;;;;;;;13.40;8.20;;;15.50;68.00;;;;;;5105840;28;20035;-71
2022/03/16 12:04:46;;;;;;;13.33;7.50;;;15.60;68.30;;;;;;5104187;28;20403;-71
2022/03/16 12:07:14;;;;;;;12.75;6.40;;;15.70;66.00;;;;;;5100310;28;20524;-71
2022/03/16 12:09:50;;;;;;;11.85;6.32;;;15.80;67.30;;;;;;5106421;28;20071;-70
2022/03/16 12:15:25;;;;;;;11.55;6.55;;;15.90;63.80;;;;;;5106731;28;20043;-70
2022/03/16 12:17:51;;;;;;;11.88;6.55;;;15.90;63.80;;;;;;5107511;28;20039;-71
2022/03/16 12:20:23;;;;;;;11.60;6.35;;;16.00;63.60;;;;;;5149614;22;20064;-81
2022/03/16 12:22:50;;;;;;;10.18;6.40;;;16.00;62.30;;;;;;5062519;28;20052;-82
2022/03/16 12:25:29;;;;;;;12.73;6.75;;;16.10;62.60;;;;;;5080046;28;20051;-80
2022/03/16 12:31:06;;;;;;;15.07;6.63;;;16.20;62.20;;;;;;5069935;28;20070;-81
2022/03/16 12:33:48;;;;;;;12.27;6.30;;;16.30;62.60;;;;;;5080650;22;20048;-69
2022/03/16 12:36:20;;;;;;;12.30;6.38;;;16.50;61.70;;;;;;5057490;28;20052;-69
2022/03/16 12:38:50;;;;;;;11.57;6.75;;;16.60;61.10;;;;;;5061161;28;20455;-69
2022/03/16 12:44:11;;;;;;;13.15;6.72;;;16.70;60.20;;;;;;5060097;28;20059;-69
2022/03/16 12:46:40;;;;;;;11.73;7.35;;;16.80;59.80;;;;;;5045106;28;20126;-69
2022/03/16 12:49:09;;;;;;;13.48;7.03;;;16.80;59.10;;;;;;5066223;28;20131;-70
2022/03/16 12:51:45;;;;;;;11.10;7.15;;;16.80;58.80;;;;;;5069418;28;20032;-69
2022/03/16 12:54:13;;;;;;;17.45;7.28;;;16.80;58.00;;;;;;5061710;28;20097;-69
2022/03/16 12:56:44;;;;;;;13.38;7.63;;;16.80;57.80;;;;;;5053689;28;20049;-69
2022/03/16 12:59:11;;;;;;;14.25;7.68;;;16.70;57.20;;;;;;5068667;28;20041;-70
2022/03/16 13:01:38;;;;;;;12.05;7.00;;;16.80;57.90;;;;;;5067254;28;20048;-70
2022/03/16 13:04:05;;;;;;;10.27;6.63;;;16.80;57.50;;;;;;5065446;28;20295;-70
2022/03/16 13:06:33;;;;;;;14.85;8.18;;;16.80;57.70;;;;;;5068090;28;20573;-70
2022/03/16 13:09:07;;;;;;;11.30;7.15;;;16.90;57.70;;;;;;5062512;28;20417;-70